sensor_id;sensor_type;location;lat;lon;timestamp;P1;durP1;ratioP1;P2;durP2;ratioP2
51288;SDS011;37372;52.294;5.152;2024-03-02T00:00:14;5.03;;;2.03;;
51288;SDS011;37372;52.294;5.152;2024-03-02T00:02:43;3.30;;;1.70;;
51288;SDS011;37372;52.294;5.152;2024-03-02T00:05:10;3.83;;;1.65;;
51288;SDS011;37372;52.294;5.152;2024-03-02T00:07:46;3.83;;;1.70;;
51288;SDS011;37372;52.294;5.152;2024-03-02T00:10:19;3.90;;;1.77;;
51288;SDS011;37372;52.294;5.152;2024-03-02T00:12:50;2.83;;;1.40;;
51288;SDS011;37372;52.294;5.152;2024-03-02T00:17:59;2.13;;;1.40;;
51288;SDS011;37372;52.294;5.152;2024-03-02T00:20:29;5.35;;;2.03;;
51288;SDS011;37372;52.294;5.152;2024-03-02T00:22:58;2.33;;;1.30;;
51288;SDS011;37372;52.294;5.152;2024-03-02T00:25:40;3.42;;;1.70;;
51288;SDS011;37372;52.294;5.152;2024-03-02T00:28:13;3.03;;;1.70;;
51288;SDS011;37372;52.294;5.152;2024-03-02T00:30:57;2.70;;;1.60;;
51288;SDS011;37372;52.294;5.152;2024-03-02T00:33:32;2.33;;;0.98;;
51288;SDS011;37372;52.294;5.152;2024-03-02T00:35:58;1.10;;;0.90;;
51288;SDS011;37372;52.294;5.152;2024-03-02T00:38:25;0.70;;;0.70;;
51288;SDS011;37372;52.294;5.152;2024-03-02T00:40:54;0.80;;;0.80;;
51288;SDS011;37372;52.294;5.152;2024-03-02T00:46:18;1.10;;;0.70;;
51288;SDS011;37372;52.294;5.152;2024-03-02T00:48:48;0.60;;;0.60;;
51288;SDS011;37372;52.294;5.152;2024-03-02T00:51:17;0.73;;;0.70;;
51288;SDS011;37372;52.294;5.152;2024-03-02T00:53:42;1.70;;;0.80;;
51288;SDS011;37372;52.294;5.152;2024-03-02T00:56:09;1.00;;;0.80;;
51288;SDS011;37372;52.294;5.152;2024-03-02T00:58:36;1.00;;;0.88;;
51288;SDS011;37372;52.294;5.152;2024-03-02T01:01:01;0.83;;;0.70;;
51288;SDS011;37372;52.294;5.152;2024-03-02T01:03:27;0.60;;;0.60;;
51288;SDS011;37372;52.294;5.152;2024-03-02T01:05:53;0.93;;;0.70;;
51288;SDS011;37372;52.294;5.152;2024-03-02T01:08:19;0.93;;;0.73;;
51288;SDS011;37372;52.294;5.152;2024-03-02T01:10:44;1.00;;;0.60;;
51288;SDS011;37372;52.294;5.152;2024-03-02T01:13:10;1.03;;;0.67;;
51288;SDS011;37372;52.294;5.152;2024-03-02T01:15:35;0.83;;;0.57;;
51288;SDS011;37372;52.294;5.152;2024-03-02T01:18:01;0.50;;;0.50;;
51288;SDS011;37372;52.294;5.152;2024-03-02T01:20:27;0.50;;;0.50;;
51288;SDS011;37372;52.294;5.152;2024-03-02T01:22:55;0.77;;;0.60;;
51288;SDS011;37372;52.294;5.152;2024-03-02T01:25:21;0.68;;;0.68;;
51288;SDS011;37372;52.294;5.152;2024-03-02T01:27:46;1.00;;;0.70;;
51288;SDS011;37372;52.294;5.152;2024-03-02T01:30:12;0.63;;;0.60;;
51288;SDS011;37372;52.294;5.152;2024-03-02T01:32:37;0.80;;;0.77;;
51288;SDS011;37372;52.294;5.152;2024-03-02T01:35:04;0.88;;;0.68;;
51288;SDS011;37372;52.294;5.152;2024-03-02T01:37:30;1.27;;;0.70;;
51288;SDS011;37372;52.294;5.152;2024-03-02T01:39:56;0.70;;;0.70;;
51288;SDS011;37372;52.294;5.152;2024-03-02T01:42:21;1.07;;;0.73;;
51288;SDS011;37372;52.294;5.152;2024-03-02T01:44:47;0.83;;;0.80;;
51288;SDS011;37372;52.294;5.152;2024-03-02T01:47:13;1.35;;;0.70;;
51288;SDS011;37372;52.294;5.152;2024-03-02T01:49:39;1.90;;;0.90;;
51288;SDS011;37372;52.294;5.152;2024-03-02T01:52:06;2.22;;;0.85;;
51288;SDS011;37372;52.294;5.152;2024-03-02T01:54:31;1.50;;;0.95;;
51288;SDS011;37372;52.294;5.152;2024-03-02T01:56:58;1.07;;;0.93;;
51288;SDS011;37372;52.294;5.152;2024-03-02T01:59:24;1.55;;;0.90;;
51288;SDS011;37372;52.294;5.152;2024-03-02T02:01:50;1.33;;;0.90;;
51288;SDS011;37372;52.294;5.152;2024-03-02T02:04:15;1.20;;;1.00;;
51288;SDS011;37372;52.294;5.152;2024-03-02T02:06:40;1.30;;;1.00;;
51288;SDS011;37372;52.294;5.152;2024-03-02T02:09:06;1.45;;;0.90;;
51288;SDS011;37372;52.294;5.152;2024-03-02T02:11:33;1.73;;;1.15;;
51288;SDS011;37372;52.294;5.152;2024-03-02T02:13:59;1.10;;;1.00;;
51288;SDS011;37372;52.294;5.152;2024-03-02T02:16:25;1.45;;;0.88;;
51288;SDS011;37372;52.294;5.152;2024-03-02T02:18:50;2.17;;;0.90;;
51288;SDS011;37372;52.294;5.152;2024-03-02T02:21:15;1.10;;;1.00;;
51288;SDS011;37372;52.294;5.152;2024-03-02T02:23:44;1.30;;;0.80;;
51288;SDS011;37372;52.294;5.152;2024-03-02T02:26:13;3.33;;;0.87;;
51288;SDS011;37372;52.294;5.152;2024-03-02T02:28:38;1.15;;;0.90;;
51288;SDS011;37372;52.294;5.152;2024-03-02T02:31:04;1.20;;;0.80;;
51288;SDS011;37372;52.294;5.152;2024-03-02T02:33:29;1.00;;;0.90;;
51288;SDS011;37372;52.294;5.152;2024-03-02T02:35:55;2.10;;;1.00;;
51288;SDS011;37372;52.294;5.152;2024-03-02T02:38:21;1.77;;;0.80;;
51288;SDS011;37372;52.294;5.152;2024-03-02T02:40:46;1.80;;;0.93;;
51288;SDS011;37372;52.294;5.152;2024-03-02T02:43:12;1.07;;;0.97;;
51288;SDS011;37372;52.294;5.152;2024-03-02T02:45:37;1.15;;;0.80;;
51288;SDS011;37372;52.294;5.152;2024-03-02T02:48:03;0.97;;;0.80;;
51288;SDS011;37372;52.294;5.152;2024-03-02T02:50:28;1.80;;;0.90;;
51288;SDS011;37372;52.294;5.152;2024-03-02T02:52:54;1.52;;;0.80;;
51288;SDS011;37372;52.294;5.152;2024-03-02T02:55:19;1.27;;;0.70;;
51288;SDS011;37372;52.294;5.152;2024-03-02T02:57:46;1.52;;;1.08;;
51288;SDS011;37372;52.294;5.152;2024-03-02T03:00:13;3.60;;;0.90;;
51288;SDS011;37372;52.294;5.152;2024-03-02T03:02:40;0.80;;;0.73;;
51288;SDS011;37372;52.294;5.152;2024-03-02T03:05:07;2.28;;;1.00;;
51288;SDS011;37372;52.294;5.152;2024-03-02T03:07:36;1.33;;;0.80;;
51288;SDS011;37372;52.294;5.152;2024-03-02T03:10:03;1.77;;;1.00;;
51288;SDS011;37372;52.294;5.152;2024-03-02T03:12:29;3.08;;;0.85;;
51288;SDS011;37372;52.294;5.152;2024-03-02T03:14:59;1.23;;;0.90;;
51288;SDS011;37372;52.294;5.152;2024-03-02T03:17:25;1.75;;;1.00;;
51288;SDS011;37372;52.294;5.152;2024-03-02T03:19:51;1.08;;;0.90;;
51288;SDS011;37372;52.294;5.152;2024-03-02T03:22:16;1.30;;;0.93;;
51288;SDS011;37372;52.294;5.152;2024-03-02T03:24:42;1.20;;;0.90;;
51288;SDS011;37372;52.294;5.152;2024-03-02T03:27:08;1.17;;;0.90;;
51288;SDS011;37372;52.294;5.152;2024-03-02T03:29:33;0.87;;;0.80;;
51288;SDS011;37372;52.294;5.152;2024-03-02T03:31:58;1.60;;;0.97;;
51288;SDS011;37372;52.294;5.152;2024-03-02T03:34:24;1.67;;;0.83;;
51288;SDS011;37372;52.294;5.152;2024-03-02T03:36:49;1.30;;;0.82;;
51288;SDS011;37372;52.294;5.152;2024-03-02T03:39:14;1.90;;;0.90;;
51288;SDS011;37372;52.294;5.152;2024-03-02T03:41:40;1.17;;;0.95;;
51288;SDS011;37372;52.294;5.152;2024-03-02T03:44:06;1.10;;;1.00;;
51288;SDS011;37372;52.294;5.152;2024-03-02T03:46:31;0.70;;;0.70;;
51288;SDS011;37372;52.294;5.152;2024-03-02T03:48:57;1.43;;;0.73;;
51288;SDS011;37372;52.294;5.152;2024-03-02T03:51:22;1.63;;;1.00;;
51288;SDS011;37372;52.294;5.152;2024-03-02T03:53:48;1.00;;;0.90;;
51288;SDS011;37372;52.294;5.152;2024-03-02T03:56:14;3.10;;;0.90;;
51288;SDS011;37372;52.294;5.152;2024-03-02T03:58:39;1.30;;;0.90;;
51288;SDS011;37372;52.294;5.152;2024-03-02T04:01:04;0.90;;;0.80;;
51288;SDS011;37372;52.294;5.152;2024-03-02T04:03:30;0.80;;;0.80;;
51288;SDS011;37372;52.294;5.152;2024-03-02T04:05:55;1.30;;;0.90;;
51288;SDS011;37372;52.294;5.152;2024-03-02T04:08:21;2.67;;;0.90;;
51288;SDS011;37372;52.294;5.152;2024-03-02T04:10:46;1.77;;;0.80;;
51288;SDS011;37372;52.294;5.152;2024-03-02T04:13:12;1.43;;;0.87;;
51288;SDS011;37372;52.294;5.152;2024-03-02T04:15:37;1.15;;;0.80;;
51288;SDS011;37372;52.294;5.152;2024-03-02T04:18:06;1.80;;;1.00;;
51288;SDS011;37372;52.294;5.152;2024-03-02T04:20:31;2.30;;;0.77;;
51288;SDS011;37372;52.294;5.152;2024-03-02T04:22:57;0.90;;;0.77;;
51288;SDS011;37372;52.294;5.152;2024-03-02T04:25:22;1.53;;;0.73;;
51288;SDS011;37372;52.294;5.152;2024-03-02T04:27:48;0.80;;;0.70;;
51288;SDS011;37372;52.294;5.152;2024-03-02T04:30:13;2.08;;;0.73;;
51288;SDS011;37372;52.294;5.152;2024-03-02T04:32:39;0.80;;;0.80;;
51288;SDS011;37372;52.294;5.152;2024-03-02T04:35:05;1.60;;;0.70;;
51288;SDS011;37372;52.294;5.152;2024-03-02T04:37:35;1.80;;;0.70;;
51288;SDS011;37372;52.294;5.152;2024-03-02T04:40:00;2.50;;;0.60;;
51288;SDS011;37372;52.294;5.152;2024-03-02T04:42:25;1.52;;;0.90;;
51288;SDS011;37372;52.294;5.152;2024-03-02T04:44:51;1.50;;;0.70;;
51288;SDS011;37372;52.294;5.152;2024-03-02T04:47:16;1.93;;;0.90;;
51288;SDS011;37372;52.294;5.152;2024-03-02T04:49:41;1.00;;;0.83;;
51288;SDS011;37372;52.294;5.152;2024-03-02T04:52:08;1.42;;;0.82;;
51288;SDS011;37372;52.294;5.152;2024-03-02T04:54:34;1.13;;;0.75;;
51288;SDS011;37372;52.294;5.152;2024-03-02T04:57:20;1.10;;;0.80;;
51288;SDS011;37372;52.294;5.152;2024-03-02T04:59:45;1.33;;;0.80;;
51288;SDS011;37372;52.294;5.152;2024-03-02T05:02:11;0.70;;;0.70;;
51288;SDS011;37372;52.294;5.152;2024-03-02T05:04:39;1.08;;;0.80;;
51288;SDS011;37372;52.294;5.152;2024-03-02T05:07:05;2.08;;;1.00;;
51288;SDS011;37372;52.294;5.152;2024-03-02T05:09:30;2.23;;;0.80;;
51288;SDS011;37372;52.294;5.152;2024-03-02T05:11:55;1.63;;;0.70;;
51288;SDS011;37372;52.294;5.152;2024-03-02T05:14:36;1.08;;;0.80;;
51288;SDS011;37372;52.294;5.152;2024-03-02T05:17:02;1.95;;;0.82;;
51288;SDS011;37372;52.294;5.152;2024-03-02T05:19:28;2.03;;;0.97;;
51288;SDS011;37372;52.294;5.152;2024-03-02T05:21:53;1.23;;;0.70;;
51288;SDS011;37372;52.294;5.152;2024-03-02T05:24:19;1.13;;;1.00;;
51288;SDS011;37372;52.294;5.152;2024-03-02T05:26:44;1.63;;;1.03;;
51288;SDS011;37372;52.294;5.152;2024-03-02T05:29:10;2.80;;;0.90;;
51288;SDS011;37372;52.294;5.152;2024-03-02T05:31:35;1.77;;;1.10;;
51288;SDS011;37372;52.294;5.152;2024-03-02T05:34:04;2.03;;;1.15;;
51288;SDS011;37372;52.294;5.152;2024-03-02T05:36:30;2.15;;;1.10;;
51288;SDS011;37372;52.294;5.152;2024-03-02T05:38:56;0.95;;;0.82;;
51288;SDS011;37372;52.294;5.152;2024-03-02T05:41:22;1.67;;;1.03;;
51288;SDS011;37372;52.294;5.152;2024-03-02T05:43:47;2.27;;;1.00;;
51288;SDS011;37372;52.294;5.152;2024-03-02T05:46:19;1.10;;;0.88;;
51288;SDS011;37372;52.294;5.152;2024-03-02T05:48:45;1.40;;;1.10;;
51288;SDS011;37372;52.294;5.152;2024-03-02T05:51:10;1.97;;;1.10;;
51288;SDS011;37372;52.294;5.152;2024-03-02T05:53:36;1.87;;;1.03;;
51288;SDS011;37372;52.294;5.152;2024-03-02T05:56:03;1.30;;;0.90;;
51288;SDS011;37372;52.294;5.152;2024-03-02T05:58:29;3.47;;;1.20;;
51288;SDS011;37372;52.294;5.152;2024-03-02T06:01:14;1.38;;;0.90;;
51288;SDS011;37372;52.294;5.152;2024-03-02T06:03:39;1.93;;;1.07;;
51288;SDS011;37372;52.294;5.152;2024-03-02T06:06:05;2.43;;;1.13;;
51288;SDS011;37372;52.294;5.152;2024-03-02T06:08:30;1.83;;;0.97;;
51288;SDS011;37372;52.294;5.152;2024-03-02T06:10:55;2.30;;;1.07;;
51288;SDS011;37372;52.294;5.152;2024-03-02T06:13:21;2.55;;;1.00;;
51288;SDS011;37372;52.294;5.152;2024-03-02T06:15:46;1.53;;;0.90;;
51288;SDS011;37372;52.294;5.152;2024-03-02T06:18:12;1.27;;;0.93;;
51288;SDS011;37372;52.294;5.152;2024-03-02T06:20:37;2.03;;;0.90;;
51288;SDS011;37372;52.294;5.152;2024-03-02T06:23:03;1.75;;;0.80;;
51288;SDS011;37372;52.294;5.152;2024-03-02T06:25:32;1.10;;;1.00;;
51288;SDS011;37372;52.294;5.152;2024-03-02T06:27:58;2.70;;;0.90;;
51288;SDS011;37372;52.294;5.152;2024-03-02T06:30:23;2.73;;;1.20;;
51288;SDS011;37372;52.294;5.152;2024-03-02T06:32:49;5.10;;;1.00;;
51288;SDS011;37372;52.294;5.152;2024-03-02T06:35:14;1.85;;;1.00;;
51288;SDS011;37372;52.294;5.152;2024-03-02T06:37:40;2.00;;;0.80;;
51288;SDS011;37372;52.294;5.152;2024-03-02T06:40:06;2.27;;;0.90;;
51288;SDS011;37372;52.294;5.152;2024-03-02T06:42:33;2.05;;;0.80;;
51288;SDS011;37372;52.294;5.152;2024-03-02T06:44:59;2.13;;;0.85;;
51288;SDS011;37372;52.294;5.152;2024-03-02T06:47:26;2.97;;;0.80;;
51288;SDS011;37372;52.294;5.152;2024-03-02T06:49:54;2.67;;;0.90;;
51288;SDS011;37372;52.294;5.152;2024-03-02T06:52:22;2.20;;;0.80;;
51288;SDS011;37372;52.294;5.152;2024-03-02T06:54:47;2.33;;;0.80;;
51288;SDS011;37372;52.294;5.152;2024-03-02T06:57:13;2.70;;;0.80;;
51288;SDS011;37372;52.294;5.152;2024-03-02T06:59:38;1.17;;;0.90;;
51288;SDS011;37372;52.294;5.152;2024-03-02T07:02:04;1.55;;;0.90;;
51288;SDS011;37372;52.294;5.152;2024-03-02T07:04:29;0.80;;;0.70;;
51288;SDS011;37372;52.294;5.152;2024-03-02T07:06:55;2.63;;;1.00;;
51288;SDS011;37372;52.294;5.152;2024-03-02T07:09:21;2.03;;;1.00;;
51288;SDS011;37372;52.294;5.152;2024-03-02T07:11:49;2.15;;;0.80;;
51288;SDS011;37372;52.294;5.152;2024-03-02T07:14:15;3.67;;;1.00;;
51288;SDS011;37372;52.294;5.152;2024-03-02T07:16:41;2.73;;;0.97;;
51288;SDS011;37372;52.294;5.152;2024-03-02T07:19:08;3.63;;;0.90;;
51288;SDS011;37372;52.294;5.152;2024-03-02T07:21:34;2.40;;;1.00;;
51288;SDS011;37372;52.294;5.152;2024-03-02T07:24:00;2.67;;;1.00;;
51288;SDS011;37372;52.294;5.152;2024-03-02T07:26:28;2.37;;;0.80;;
51288;SDS011;37372;52.294;5.152;2024-03-02T07:28:57;4.07;;;1.23;;
51288;SDS011;37372;52.294;5.152;2024-03-02T07:31:31;1.88;;;0.90;;
51288;SDS011;37372;52.294;5.152;2024-03-02T07:33:57;1.92;;;1.00;;
51288;SDS011;37372;52.294;5.152;2024-03-02T07:36:26;3.20;;;0.90;;
51288;SDS011;37372;52.294;5.152;2024-03-02T07:38:52;2.83;;;0.90;;
51288;SDS011;37372;52.294;5.152;2024-03-02T07:41:25;2.30;;;1.15;;
51288;SDS011;37372;52.294;5.152;2024-03-02T07:47:12;4.10;;;1.17;;
51288;SDS011;37372;52.294;5.152;2024-03-02T07:49:38;2.13;;;1.05;;
51288;SDS011;37372;52.294;5.152;2024-03-02T07:52:04;1.58;;;0.90;;
51288;SDS011;37372;52.294;5.152;2024-03-02T07:54:33;2.37;;;0.90;;
51288;SDS011;37372;52.294;5.152;2024-03-02T07:57:05;3.42;;;0.98;;
51288;SDS011;37372;52.294;5.152;2024-03-02T08:00:04;3.15;;;0.98;;
51288;SDS011;37372;52.294;5.152;2024-03-02T08:02:24;2.80;;;1.00;;
51288;SDS011;37372;52.294;5.152;2024-03-02T08:04:53;1.10;;;0.80;;
51288;SDS011;37372;52.294;5.152;2024-03-02T08:07:18;3.13;;;1.00;;
51288;SDS011;37372;52.294;5.152;2024-03-02T08:09:44;1.48;;;0.80;;
51288;SDS011;37372;52.294;5.152;2024-03-02T08:12:10;2.10;;;1.02;;
51288;SDS011;37372;52.294;5.152;2024-03-02T08:14:36;4.70;;;1.00;;
51288;SDS011;37372;52.294;5.152;2024-03-02T08:17:02;4.72;;;1.17;;
51288;SDS011;37372;52.294;5.152;2024-03-02T08:19:27;0.90;;;0.77;;
51288;SDS011;37372;52.294;5.152;2024-03-02T08:21:55;1.75;;;0.88;;
51288;SDS011;37372;52.294;5.152;2024-03-02T08:24:26;2.05;;;0.90;;
51288;SDS011;37372;52.294;5.152;2024-03-02T08:26:52;2.20;;;0.80;;
51288;SDS011;37372;52.294;5.152;2024-03-02T08:29:17;3.07;;;0.90;;
51288;SDS011;37372;52.294;5.152;2024-03-02T08:31:43;1.03;;;0.83;;
51288;SDS011;37372;52.294;5.152;2024-03-02T08:34:08;3.73;;;1.00;;
51288;SDS011;37372;52.294;5.152;2024-03-02T08:36:38;3.75;;;0.80;;
51288;SDS011;37372;52.294;5.152;2024-03-02T08:39:03;2.63;;;1.00;;
51288;SDS011;37372;52.294;5.152;2024-03-02T08:41:33;3.03;;;1.10;;
51288;SDS011;37372;52.294;5.152;2024-03-02T08:44:11;2.03;;;0.85;;
51288;SDS011;37372;52.294;5.152;2024-03-02T08:46:38;2.38;;;0.90;;
51288;SDS011;37372;52.294;5.152;2024-03-02T08:49:07;2.17;;;0.90;;
51288;SDS011;37372;52.294;5.152;2024-03-02T08:51:33;2.90;;;0.93;;
51288;SDS011;37372;52.294;5.152;2024-03-02T08:54:04;15.20;;;1.20;;
51288;SDS011;37372;52.294;5.152;2024-03-02T08:56:30;6.38;;;1.10;;
51288;SDS011;37372;52.294;5.152;2024-03-02T08:58:56;3.13;;;0.90;;
51288;SDS011;37372;52.294;5.152;2024-03-02T09:01:21;4.20;;;0.93;;
51288;SDS011;37372;52.294;5.152;2024-03-02T09:03:47;5.53;;;0.97;;
51288;SDS011;37372;52.294;5.152;2024-03-02T09:06:16;2.67;;;1.10;;
51288;SDS011;37372;52.294;5.152;2024-03-02T09:08:43;3.10;;;0.90;;
51288;SDS011;37372;52.294;5.152;2024-03-02T09:11:09;2.78;;;1.15;;
51288;SDS011;37372;52.294;5.152;2024-03-02T09:13:35;8.93;;;1.30;;
51288;SDS011;37372;52.294;5.152;2024-03-02T09:16:00;5.07;;;1.00;;
51288;SDS011;37372;52.294;5.152;2024-03-02T09:18:29;1.77;;;0.77;;
51288;SDS011;37372;52.294;5.152;2024-03-02T09:20:55;4.37;;;1.13;;
51288;SDS011;37372;52.294;5.152;2024-03-02T09:26:05;4.10;;;1.00;;
51288;SDS011;37372;52.294;5.152;2024-03-02T09:28:31;3.15;;;1.00;;
51288;SDS011;37372;52.294;5.152;2024-03-02T09:30:56;3.33;;;1.10;;
51288;SDS011;37372;52.294;5.152;2024-03-02T09:33:24;3.57;;;1.20;;
51288;SDS011;37372;52.294;5.152;2024-03-02T09:35:51;2.88;;;1.00;;
51288;SDS011;37372;52.294;5.152;2024-03-02T09:38:19;2.88;;;1.10;;
51288;SDS011;37372;52.294;5.152;2024-03-02T09:40:45;3.63;;;1.00;;
51288;SDS011;37372;52.294;5.152;2024-03-02T09:43:11;4.63;;;1.20;;
51288;SDS011;37372;52.294;5.152;2024-03-02T09:45:38;3.60;;;1.08;;
51288;SDS011;37372;52.294;5.152;2024-03-02T09:48:08;8.40;;;1.57;;
51288;SDS011;37372;52.294;5.152;2024-03-02T09:50:39;5.18;;;0.85;;
51288;SDS011;37372;52.294;5.152;2024-03-02T09:53:04;3.60;;;1.00;;
51288;SDS011;37372;52.294;5.152;2024-03-02T09:55:30;4.07;;;0.90;;
51288;SDS011;37372;52.294;5.152;2024-03-02T09:57:55;2.60;;;0.80;;
51288;SDS011;37372;52.294;5.152;2024-03-02T10:00:28;3.50;;;1.00;;
51288;SDS011;37372;52.294;5.152;2024-03-02T10:02:54;11.30;;;1.48;;
51288;SDS011;37372;52.294;5.152;2024-03-02T10:05:26;3.63;;;0.90;;
51288;SDS011;37372;52.294;5.152;2024-03-02T10:08:01;6.15;;;1.02;;
51288;SDS011;37372;52.294;5.152;2024-03-02T10:10:34;3.87;;;1.00;;
51288;SDS011;37372;52.294;5.152;2024-03-02T10:13:05;4.72;;;1.20;;
51288;SDS011;37372;52.294;5.152;2024-03-02T10:15:34;2.80;;;1.00;;
51288;SDS011;37372;52.294;5.152;2024-03-02T10:18:06;5.10;;;0.90;;
51288;SDS011;37372;52.294;5.152;2024-03-02T10:20:35;6.65;;;1.02;;
51288;SDS011;37372;52.294;5.152;2024-03-02T10:23:11;3.43;;;0.90;;
51288;SDS011;37372;52.294;5.152;2024-03-02T10:25:37;4.50;;;0.80;;
51288;SDS011;37372;52.294;5.152;2024-03-02T10:28:03;4.07;;;1.50;;
51288;SDS011;37372;52.294;5.152;2024-03-02T10:30:31;3.08;;;0.90;;
51288;SDS011;37372;52.294;5.152;2024-03-02T10:32:56;6.18;;;1.02;;
51288;SDS011;37372;52.294;5.152;2024-03-02T10:35:22;5.03;;;0.90;;
51288;SDS011;37372;52.294;5.152;2024-03-02T10:37:51;4.28;;;1.00;;
51288;SDS011;37372;52.294;5.152;2024-03-02T10:40:18;3.55;;;0.98;;
51288;SDS011;37372;52.294;5.152;2024-03-02T10:42:46;5.17;;;1.30;;
51288;SDS011;37372;52.294;5.152;2024-03-02T10:45:13;5.00;;;1.10;;
51288;SDS011;37372;52.294;5.152;2024-03-02T10:47:41;8.30;;;1.00;;
51288;SDS011;37372;52.294;5.152;2024-03-02T10:50:08;2.15;;;1.10;;
51288;SDS011;37372;52.294;5.152;2024-03-02T10:52:34;4.67;;;0.90;;
51288;SDS011;37372;52.294;5.152;2024-03-02T10:55:01;2.83;;;0.98;;
51288;SDS011;37372;52.294;5.152;2024-03-02T10:57:27;5.80;;;1.10;;
51288;SDS011;37372;52.294;5.152;2024-03-02T11:00:05;4.63;;;0.85;;
51288;SDS011;37372;52.294;5.152;2024-03-02T11:02:32;3.33;;;0.75;;
51288;SDS011;37372;52.294;5.152;2024-03-02T11:05:03;3.45;;;0.85;;
51288;SDS011;37372;52.294;5.152;2024-03-02T11:07:35;4.03;;;1.30;;
51288;SDS011;37372;52.294;5.152;2024-03-02T11:10:03;1.13;;;0.50;;
51288;SDS011;37372;52.294;5.152;2024-03-02T11:12:38;3.78;;;0.75;;
51288;SDS011;37372;52.294;5.152;2024-03-02T11:15:13;2.35;;;0.80;;
51288;SDS011;37372;52.294;5.152;2024-03-02T11:17:46;3.90;;;0.80;;
51288;SDS011;37372;52.294;5.152;2024-03-02T11:20:13;3.05;;;0.80;;
51288;SDS011;37372;52.294;5.152;2024-03-02T11:22:40;5.20;;;0.83;;
51288;SDS011;37372;52.294;5.152;2024-03-02T11:25:06;5.05;;;1.00;;
51288;SDS011;37372;52.294;5.152;2024-03-02T11:33:07;3.70;;;1.35;;
51288;SDS011;37372;52.294;5.152;2024-03-02T11:35:33;5.33;;;0.90;;
51288;SDS011;37372;52.294;5.152;2024-03-02T11:38:07;2.63;;;0.90;;
51288;SDS011;37372;52.294;5.152;2024-03-02T11:40:34;4.25;;;0.80;;
51288;SDS011;37372;52.294;5.152;2024-03-02T11:43:00;3.07;;;0.80;;
51288;SDS011;37372;52.294;5.152;2024-03-02T11:45:26;2.38;;;0.70;;
51288;SDS011;37372;52.294;5.152;2024-03-02T11:47:56;2.85;;;0.80;;
51288;SDS011;37372;52.294;5.152;2024-03-02T11:50:33;3.93;;;0.90;;
51288;SDS011;37372;52.294;5.152;2024-03-02T11:53:00;5.90;;;0.82;;
51288;SDS011;37372;52.294;5.152;2024-03-02T11:55:26;2.58;;;0.80;;
51288;SDS011;37372;52.294;5.152;2024-03-02T11:57:54;4.10;;;0.80;;
51288;SDS011;37372;52.294;5.152;2024-03-02T12:00:20;2.58;;;0.80;;
51288;SDS011;37372;52.294;5.152;2024-03-02T12:02:47;2.28;;;0.77;;
51288;SDS011;37372;52.294;5.152;2024-03-02T12:05:24;4.30;;;0.80;;
51288;SDS011;37372;52.294;5.152;2024-03-02T12:07:55;3.10;;;0.60;;
51288;SDS011;37372;52.294;5.152;2024-03-02T12:10:31;3.33;;;0.80;;
51288;SDS011;37372;52.294;5.152;2024-03-02T12:12:57;5.43;;;1.02;;
51288;SDS011;37372;52.294;5.152;2024-03-02T12:15:27;3.17;;;0.80;;
51288;SDS011;37372;52.294;5.152;2024-03-02T12:17:57;4.43;;;0.80;;
51288;SDS011;37372;52.294;5.152;2024-03-02T12:20:24;3.35;;;0.95;;
51288;SDS011;37372;52.294;5.152;2024-03-02T12:22:53;2.72;;;0.70;;
51288;SDS011;37372;52.294;5.152;2024-03-02T12:25:20;8.63;;;1.08;;
51288;SDS011;37372;52.294;5.152;2024-03-02T12:27:46;1.85;;;0.70;;
51288;SDS011;37372;52.294;5.152;2024-03-02T12:30:14;2.33;;;0.70;;
51288;SDS011;37372;52.294;5.152;2024-03-02T12:32:41;2.65;;;0.65;;
51288;SDS011;37372;52.294;5.152;2024-03-02T12:35:07;3.27;;;0.80;;
51288;SDS011;37372;52.294;5.152;2024-03-02T12:37:32;2.47;;;0.80;;
51288;SDS011;37372;52.294;5.152;2024-03-02T12:39:58;1.77;;;0.90;;
51288;SDS011;37372;52.294;5.152;2024-03-02T12:42:26;2.13;;;0.83;;
51288;SDS011;37372;52.294;5.152;2024-03-02T12:44:52;1.67;;;0.68;;
51288;SDS011;37372;52.294;5.152;2024-03-02T12:47:21;3.88;;;0.80;;
51288;SDS011;37372;52.294;5.152;2024-03-02T12:49:48;2.20;;;0.80;;
51288;SDS011;37372;52.294;5.152;2024-03-02T12:52:16;1.93;;;0.73;;
51288;SDS011;37372;52.294;5.152;2024-03-02T12:54:42;4.53;;;0.80;;
51288;SDS011;37372;52.294;5.152;2024-03-02T12:57:09;2.08;;;0.63;;
51288;SDS011;37372;52.294;5.152;2024-03-02T12:59:34;5.03;;;1.10;;
51288;SDS011;37372;52.294;5.152;2024-03-02T13:01:59;5.27;;;0.93;;
51288;SDS011;37372;52.294;5.152;2024-03-02T13:04:27;2.45;;;0.70;;
51288;SDS011;37372;52.294;5.152;2024-03-02T13:06:54;2.90;;;0.88;;
51288;SDS011;37372;52.294;5.152;2024-03-02T13:09:22;3.72;;;0.85;;
51288;SDS011;37372;52.294;5.152;2024-03-02T13:11:48;4.60;;;0.93;;
51288;SDS011;37372;52.294;5.152;2024-03-02T13:14:14;3.67;;;0.80;;
51288;SDS011;37372;52.294;5.152;2024-03-02T13:16:44;3.05;;;0.70;;
51288;SDS011;37372;52.294;5.152;2024-03-02T13:19:12;2.37;;;0.60;;
51288;SDS011;37372;52.294;5.152;2024-03-02T13:21:37;2.25;;;0.63;;
51288;SDS011;37372;52.294;5.152;2024-03-02T13:24:04;2.43;;;0.60;;
51288;SDS011;37372;52.294;5.152;2024-03-02T13:26:30;2.35;;;0.70;;
51288;SDS011;37372;52.294;5.152;2024-03-02T13:28:56;5.15;;;0.68;;
51288;SDS011;37372;52.294;5.152;2024-03-02T13:31:21;2.13;;;0.80;;
51288;SDS011;37372;52.294;5.152;2024-03-02T13:33:49;2.40;;;0.60;;
51288;SDS011;37372;52.294;5.152;2024-03-02T13:36:15;1.88;;;0.70;;
51288;SDS011;37372;52.294;5.152;2024-03-02T13:38:40;2.40;;;0.80;;
51288;SDS011;37372;52.294;5.152;2024-03-02T13:41:05;6.17;;;1.00;;
51288;SDS011;37372;52.294;5.152;2024-03-02T13:43:31;4.13;;;0.80;;
51288;SDS011;37372;52.294;5.152;2024-03-02T13:45:57;6.23;;;0.77;;
51288;SDS011;37372;52.294;5.152;2024-03-02T13:48:39;2.63;;;0.82;;
51288;SDS011;37372;52.294;5.152;2024-03-02T13:51:05;2.92;;;0.73;;
51288;SDS011;37372;52.294;5.152;2024-03-02T13:53:31;4.20;;;0.67;;
51288;SDS011;37372;52.294;5.152;2024-03-02T13:55:57;3.75;;;0.60;;
51288;SDS011;37372;52.294;5.152;2024-03-02T13:58:24;1.75;;;0.60;;
51288;SDS011;37372;52.294;5.152;2024-03-02T14:00:49;2.20;;;0.70;;
51288;SDS011;37372;52.294;5.152;2024-03-02T14:03:15;2.30;;;0.70;;
51288;SDS011;37372;52.294;5.152;2024-03-02T14:05:41;1.55;;;0.82;;
51288;SDS011;37372;52.294;5.152;2024-03-02T14:08:08;5.35;;;1.30;;
51288;SDS011;37372;52.294;5.152;2024-03-02T14:10:43;5.40;;;1.00;;
51288;SDS011;37372;52.294;5.152;2024-03-02T14:13:08;3.17;;;1.00;;
51288;SDS011;37372;52.294;5.152;2024-03-02T14:15:34;3.13;;;1.23;;
51288;SDS011;37372;52.294;5.152;2024-03-02T14:18:03;4.25;;;1.00;;
51288;SDS011;37372;52.294;5.152;2024-03-02T14:20:29;1.47;;;0.70;;
51288;SDS011;37372;52.294;5.152;2024-03-02T14:22:54;4.30;;;1.07;;
51288;SDS011;37372;52.294;5.152;2024-03-02T14:25:23;3.25;;;1.02;;
51288;SDS011;37372;52.294;5.152;2024-03-02T14:27:48;3.80;;;0.90;;
51288;SDS011;37372;52.294;5.152;2024-03-02T14:30:13;2.20;;;0.77;;
51288;SDS011;37372;52.294;5.152;2024-03-02T14:32:39;3.87;;;0.90;;
51288;SDS011;37372;52.294;5.152;2024-03-02T14:35:04;4.13;;;1.20;;
51288;SDS011;37372;52.294;5.152;2024-03-02T14:37:30;3.15;;;0.75;;
51288;SDS011;37372;52.294;5.152;2024-03-02T14:39:56;1.77;;;0.90;;
51288;SDS011;37372;52.294;5.152;2024-03-02T14:42:21;1.83;;;0.80;;
51288;SDS011;37372;52.294;5.152;2024-03-02T14:44:47;2.00;;;0.80;;
51288;SDS011;37372;52.294;5.152;2024-03-02T14:47:12;3.13;;;0.90;;
51288;SDS011;37372;52.294;5.152;2024-03-02T14:49:40;4.10;;;1.10;;
51288;SDS011;37372;52.294;5.152;2024-03-02T14:52:10;4.57;;;1.30;;
51288;SDS011;37372;52.294;5.152;2024-03-02T14:54:35;2.58;;;1.10;;
51288;SDS011;37372;52.294;5.152;2024-03-02T14:57:01;2.33;;;1.00;;
51288;SDS011;37372;52.294;5.152;2024-03-02T14:59:37;3.97;;;1.20;;
51288;SDS011;37372;52.294;5.152;2024-03-02T15:02:10;3.72;;;1.67;;
51288;SDS011;37372;52.294;5.152;2024-03-02T15:04:36;3.23;;;1.20;;